sensor_id;sensor_type;location;lat;lon;timestamp;P1;durP1;ratioP1;P2;durP2;ratioP2
69970;SDS011;57301;50.328;8.542;2023-08-12T00:00:02;10.30;;;6.30;;
69970;SDS011;57301;50.328;8.542;2023-08-12T00:02:40;8.23;;;6.07;;
69970;SDS011;57301;50.328;8.542;2023-08-12T00:05:08;10.35;;;5.82;;
69970;SDS011;57301;50.328;8.542;2023-08-12T00:07:37;9.93;;;5.70;;
69970;SDS011;57301;50.328;8.542;2023-08-12T00:10:04;7.63;;;5.63;;
69970;SDS011;57301;50.328;8.542;2023-08-12T00:12:31;25.15;;;19.60;;
69970;SDS011;57301;50.328;8.542;2023-08-12T00:14:58;9.73;;;6.95;;
69970;SDS011;57301;50.328;8.542;2023-08-12T00:17:25;9.00;;;6.35;;
69970;SDS011;57301;50.328;8.542;2023-08-12T00:19:51;12.13;;;6.70;;
69970;SDS011;57301;50.328;8.542;2023-08-12T00:22:18;9.98;;;6.47;;
69970;SDS011;57301;50.328;8.542;2023-08-12T00:24:45;9.68;;;6.05;;
69970;SDS011;57301;50.328;8.542;2023-08-12T00:27:11;7.85;;;5.63;;
69970;SDS011;57301;50.328;8.542;2023-08-12T00:29:38;11.60;;;5.78;;
69970;SDS011;57301;50.328;8.542;2023-08-12T00:32:05;8.70;;;6.10;;
69970;SDS011;57301;50.328;8.542;2023-08-12T00:34:32;9.52;;;6.03;;
69970;SDS011;57301;50.328;8.542;2023-08-12T00:36:58;10.57;;;6.28;;
69970;SDS011;57301;50.328;8.542;2023-08-12T00:39:25;8.93;;;6.13;;
69970;SDS011;57301;50.328;8.542;2023-08-12T00:41:51;10.85;;;6.22;;
69970;SDS011;57301;50.328;8.542;2023-08-12T00:44:18;11.53;;;6.43;;
69970;SDS011;57301;50.328;8.542;2023-08-12T00:46:44;10.32;;;6.97;;
69970;SDS011;57301;50.328;8.542;2023-08-12T00:49:11;8.73;;;5.82;;
69970;SDS011;57301;50.328;8.542;2023-08-12T00:51:42;11.40;;;6.40;;
69970;SDS011;57301;50.328;8.542;2023-08-12T00:54:13;8.57;;;5.90;;
69970;SDS011;57301;50.328;8.542;2023-08-12T00:56:40;10.23;;;6.47;;
69970;SDS011;57301;50.328;8.542;2023-08-12T00:59:09;7.40;;;5.75;;
69970;SDS011;57301;50.328;8.542;2023-08-12T01:01:38;9.90;;;6.20;;
69970;SDS011;57301;50.328;8.542;2023-08-12T01:04:07;12.40;;;6.78;;
69970;SDS011;57301;50.328;8.542;2023-08-12T01:06:34;10.75;;;6.47;;
69970;SDS011;57301;50.328;8.542;2023-08-12T01:09:01;9.43;;;6.10;;
69970;SDS011;57301;50.328;8.542;2023-08-12T01:17:14;11.68;;;5.75;;
69970;SDS011;57301;50.328;8.542;2023-08-12T01:19:41;9.35;;;5.70;;
69970;SDS011;57301;50.328;8.542;2023-08-12T01:22:10;13.73;;;6.10;;
69970;SDS011;57301;50.328;8.542;2023-08-12T01:24:38;8.05;;;6.05;;
69970;SDS011;57301;50.328;8.542;2023-08-12T01:27:06;8.90;;;6.88;;
69970;SDS011;57301;50.328;8.542;2023-08-12T01:29:38;11.40;;;7.35;;
69970;SDS011;57301;50.328;8.542;2023-08-12T01:32:14;8.82;;;6.70;;
69970;SDS011;57301;50.328;8.542;2023-08-12T01:37:38;11.65;;;6.80;;
69970;SDS011;57301;50.328;8.542;2023-08-12T01:40:05;9.05;;;6.40;;
69970;SDS011;57301;50.328;8.542;2023-08-12T01:42:36;8.20;;;6.47;;
69970;SDS011;57301;50.328;8.542;2023-08-12T01:45:06;8.50;;;6.40;;
69970;SDS011;57301;50.328;8.542;2023-08-12T01:47:33;10.23;;;6.40;;
69970;SDS011;57301;50.328;8.542;2023-08-12T01:49:59;7.30;;;5.88;;
69970;SDS011;57301;50.328;8.542;2023-08-12T01:52:26;8.80;;;6.82;;
69970;SDS011;57301;50.328;8.542;2023-08-12T01:54:52;10.15;;;6.30;;
69970;SDS011;57301;50.328;8.542;2023-08-12T01:57:19;7.85;;;6.20;;
69970;SDS011;57301;50.328;8.542;2023-08-12T01:59:45;9.57;;;6.30;;
69970;SDS011;57301;50.328;8.542;2023-08-12T02:02:12;9.23;;;6.25;;
69970;SDS011;57301;50.328;8.542;2023-08-12T02:04:40;9.60;;;6.25;;
69970;SDS011;57301;50.328;8.542;2023-08-12T02:07:08;9.93;;;6.60;;
69970;SDS011;57301;50.328;8.542;2023-08-12T02:09:35;11.43;;;6.28;;
69970;SDS011;57301;50.328;8.542;2023-08-12T02:12:02;8.47;;;5.90;;
69970;SDS011;57301;50.328;8.542;2023-08-12T02:14:28;9.38;;;6.13;;
69970;SDS011;57301;50.328;8.542;2023-08-12T02:16:55;8.63;;;6.25;;
69970;SDS011;57301;50.328;8.542;2023-08-12T02:19:21;9.05;;;6.43;;
69970;SDS011;57301;50.328;8.542;2023-08-12T02:21:48;10.98;;;6.60;;
69970;SDS011;57301;50.328;8.542;2023-08-12T02:24:14;8.67;;;6.33;;
69970;SDS011;57301;50.328;8.542;2023-08-12T02:26:41;10.52;;;6.70;;
69970;SDS011;57301;50.328;8.542;2023-08-12T02:29:07;8.50;;;6.55;;
69970;SDS011;57301;50.328;8.542;2023-08-12T02:31:33;7.57;;;6.43;;
69970;SDS011;57301;50.328;8.542;2023-08-12T02:34:00;10.48;;;6.28;;
69970;SDS011;57301;50.328;8.542;2023-08-12T02:36:26;9.43;;;6.80;;
69970;SDS011;57301;50.328;8.542;2023-08-12T02:38:53;10.80;;;7.15;;
69970;SDS011;57301;50.328;8.542;2023-08-12T02:41:19;9.95;;;6.82;;
69970;SDS011;57301;50.328;8.542;2023-08-12T02:43:46;8.63;;;6.63;;
69970;SDS011;57301;50.328;8.542;2023-08-12T02:46:12;10.18;;;6.88;;
69970;SDS011;57301;50.328;8.542;2023-08-12T02:48:41;8.80;;;6.47;;
69970;SDS011;57301;50.328;8.542;2023-08-12T02:51:10;9.98;;;6.88;;
69970;SDS011;57301;50.328;8.542;2023-08-12T02:53:37;9.80;;;6.72;;
69970;SDS011;57301;50.328;8.542;2023-08-12T02:56:03;10.40;;;6.95;;
69970;SDS011;57301;50.328;8.542;2023-08-12T02:58:30;9.90;;;6.93;;
69970;SDS011;57301;50.328;8.542;2023-08-12T03:00:56;10.40;;;7.40;;
69970;SDS011;57301;50.328;8.542;2023-08-12T03:03:23;10.27;;;7.80;;
69970;SDS011;57301;50.328;8.542;2023-08-12T03:05:49;12.18;;;8.10;;
69970;SDS011;57301;50.328;8.542;2023-08-12T03:08:16;14.05;;;8.65;;
69970;SDS011;57301;50.328;8.542;2023-08-12T03:10:44;14.88;;;10.00;;
69970;SDS011;57301;50.328;8.542;2023-08-12T03:13:11;16.47;;;9.63;;
69970;SDS011;57301;50.328;8.542;2023-08-12T03:15:40;14.73;;;10.55;;
69970;SDS011;57301;50.328;8.542;2023-08-12T03:18:08;16.30;;;10.32;;
69970;SDS011;57301;50.328;8.542;2023-08-12T03:20:34;16.60;;;10.85;;
69970;SDS011;57301;50.328;8.542;2023-08-12T03:23:01;22.10;;;12.63;;
69970;SDS011;57301;50.328;8.542;2023-08-12T03:25:27;16.87;;;12.97;;
69970;SDS011;57301;50.328;8.542;2023-08-12T03:27:53;15.80;;;12.38;;
69970;SDS011;57301;50.328;8.542;2023-08-12T03:30:20;17.83;;;13.15;;
69970;SDS011;57301;50.328;8.542;2023-08-12T03:32:46;17.90;;;12.82;;
69970;SDS011;57301;50.328;8.542;2023-08-12T03:35:13;21.00;;;14.27;;
69970;SDS011;57301;50.328;8.542;2023-08-12T03:37:41;21.50;;;14.77;;
69970;SDS011;57301;50.328;8.542;2023-08-12T03:40:07;19.77;;;14.45;;
69970;SDS011;57301;50.328;8.542;2023-08-12T03:42:34;20.35;;;13.02;;
69970;SDS011;57301;50.328;8.542;2023-08-12T03:45:01;19.35;;;12.75;;
69970;SDS011;57301;50.328;8.542;2023-08-12T03:47:28;20.58;;;15.65;;
69970;SDS011;57301;50.328;8.542;2023-08-12T03:49:54;20.87;;;15.57;;
69970;SDS011;57301;50.328;8.542;2023-08-12T03:52:21;23.10;;;16.83;;
69970;SDS011;57301;50.328;8.542;2023-08-12T03:54:55;21.35;;;15.93;;
69970;SDS011;57301;50.328;8.542;2023-08-12T03:57:24;23.08;;;15.85;;
69970;SDS011;57301;50.328;8.542;2023-08-12T03:59:51;22.50;;;16.15;;
69970;SDS011;57301;50.328;8.542;2023-08-12T04:02:17;21.70;;;14.57;;
69970;SDS011;57301;50.328;8.542;2023-08-12T04:04:44;22.88;;;15.82;;
69970;SDS011;57301;50.328;8.542;2023-08-12T04:07:10;22.90;;;16.52;;
69970;SDS011;57301;50.328;8.542;2023-08-12T04:10:00;21.60;;;16.02;;
69970;SDS011;57301;50.328;8.542;2023-08-12T04:12:27;21.88;;;15.77;;
69970;SDS011;57301;50.328;8.542;2023-08-12T04:14:53;24.20;;;16.63;;
69970;SDS011;57301;50.328;8.542;2023-08-12T04:17:20;21.73;;;16.08;;
69970;SDS011;57301;50.328;8.542;2023-08-12T04:19:49;26.10;;;18.10;;
69970;SDS011;57301;50.328;8.542;2023-08-12T04:22:16;27.90;;;19.38;;
69970;SDS011;57301;50.328;8.542;2023-08-12T04:24:43;20.48;;;14.85;;
69970;SDS011;57301;50.328;8.542;2023-08-12T04:27:09;22.53;;;17.27;;
69970;SDS011;57301;50.328;8.542;2023-08-12T04:29:42;25.77;;;17.67;;
69970;SDS011;57301;50.328;8.542;2023-08-12T04:32:08;27.30;;;18.85;;
69970;SDS011;57301;50.328;8.542;2023-08-12T04:34:35;24.30;;;18.27;;
69970;SDS011;57301;50.328;8.542;2023-08-12T04:37:01;24.13;;;16.92;;
69970;SDS011;57301;50.328;8.542;2023-08-12T04:39:28;23.30;;;17.47;;
69970;SDS011;57301;50.328;8.542;2023-08-12T04:41:59;22.77;;;16.77;;
69970;SDS011;57301;50.328;8.542;2023-08-12T04:44:26;25.70;;;18.30;;
69970;SDS011;57301;50.328;8.542;2023-08-12T04:46:57;22.50;;;15.13;;
69970;SDS011;57301;50.328;8.542;2023-08-12T04:49:29;21.40;;;14.68;;
69970;SDS011;57301;50.328;8.542;2023-08-12T04:51:58;23.43;;;16.00;;
69970;SDS011;57301;50.328;8.542;2023-08-12T04:54:25;29.50;;;20.38;;
69970;SDS011;57301;50.328;8.542;2023-08-12T04:56:51;23.80;;;16.85;;
69970;SDS011;57301;50.328;8.542;2023-08-12T04:59:23;21.02;;;15.77;;
69970;SDS011;57301;50.328;8.542;2023-08-12T05:01:52;22.88;;;15.38;;
69970;SDS011;57301;50.328;8.542;2023-08-12T05:04:30;24.10;;;18.00;;
69970;SDS011;57301;50.328;8.542;2023-08-12T05:06:56;22.48;;;17.40;;
69970;SDS011;57301;50.328;8.542;2023-08-12T05:09:23;24.02;;;17.15;;
69970;SDS011;57301;50.328;8.542;2023-08-12T05:11:49;25.73;;;17.17;;
69970;SDS011;57301;50.328;8.542;2023-08-12T05:14:15;23.42;;;16.83;;
69970;SDS011;57301;50.328;8.542;2023-08-12T05:16:42;26.10;;;17.57;;
69970;SDS011;57301;50.328;8.542;2023-08-12T05:19:08;25.27;;;19.08;;
69970;SDS011;57301;50.328;8.542;2023-08-12T05:21:35;26.52;;;18.63;;
69970;SDS011;57301;50.328;8.542;2023-08-12T05:24:01;24.50;;;16.65;;
69970;SDS011;57301;50.328;8.542;2023-08-12T05:26:28;23.48;;;16.05;;
69970;SDS011;57301;50.328;8.542;2023-08-12T05:28:54;19.73;;;14.87;;
69970;SDS011;57301;50.328;8.542;2023-08-12T05:31:21;19.73;;;15.02;;
69970;SDS011;57301;50.328;8.542;2023-08-12T05:33:48;24.30;;;17.55;;
69970;SDS011;57301;50.328;8.542;2023-08-12T05:36:15;23.77;;;17.33;;
69970;SDS011;57301;50.328;8.542;2023-08-12T05:38:41;24.30;;;17.52;;
69970;SDS011;57301;50.328;8.542;2023-08-12T05:41:08;23.70;;;16.73;;
69970;SDS011;57301;50.328;8.542;2023-08-12T05:43:34;25.10;;;17.58;;
69970;SDS011;57301;50.328;8.542;2023-08-12T05:46:01;16.20;;;13.10;;
69970;SDS011;57301;50.328;8.542;2023-08-12T05:48:28;21.75;;;15.55;;
69970;SDS011;57301;50.328;8.542;2023-08-12T05:50:54;22.45;;;17.25;;
69970;SDS011;57301;50.328;8.542;2023-08-12T05:53:21;29.73;;;20.30;;
69970;SDS011;57301;50.328;8.542;2023-08-12T05:55:48;29.35;;;19.65;;
69970;SDS011;57301;50.328;8.542;2023-08-12T05:58:15;26.15;;;18.63;;
69970;SDS011;57301;50.328;8.542;2023-08-12T06:00:41;30.08;;;20.33;;
69970;SDS011;57301;50.328;8.542;2023-08-12T06:03:11;35.70;;;24.50;;
69970;SDS011;57301;50.328;8.542;2023-08-12T06:05:40;24.70;;;18.07;;
69970;SDS011;57301;50.328;8.542;2023-08-12T06:08:07;29.20;;;20.58;;
69970;SDS011;57301;50.328;8.542;2023-08-12T06:10:33;23.40;;;17.20;;
69970;SDS011;57301;50.328;8.542;2023-08-12T06:13:04;25.23;;;18.67;;
69970;SDS011;57301;50.328;8.542;2023-08-12T06:15:30;21.95;;;15.93;;
69970;SDS011;57301;50.328;8.542;2023-08-12T06:17:57;21.50;;;15.53;;
69970;SDS011;57301;50.328;8.542;2023-08-12T06:20:24;22.25;;;16.08;;
69970;SDS011;57301;50.328;8.542;2023-08-12T06:22:51;20.40;;;15.45;;
69970;SDS011;57301;50.328;8.542;2023-08-12T06:25:18;18.88;;;14.27;;
69970;SDS011;57301;50.328;8.542;2023-08-12T06:27:45;17.70;;;13.63;;
69970;SDS011;57301;50.328;8.542;2023-08-12T06:30:13;17.97;;;12.40;;
69970;SDS011;57301;50.328;8.542;2023-08-12T06:32:40;15.00;;;12.38;;
69970;SDS011;57301;50.328;8.542;2023-08-12T06:35:07;17.35;;;12.65;;
69970;SDS011;57301;50.328;8.542;2023-08-12T06:37:34;14.02;;;10.85;;
69970;SDS011;57301;50.328;8.542;2023-08-12T06:40:00;14.38;;;11.07;;
69970;SDS011;57301;50.328;8.542;2023-08-12T06:42:27;14.40;;;10.67;;
69970;SDS011;57301;50.328;8.542;2023-08-12T06:44:54;15.45;;;11.27;;
69970;SDS011;57301;50.328;8.542;2023-08-12T06:47:22;13.65;;;11.00;;
69970;SDS011;57301;50.328;8.542;2023-08-12T06:49:49;16.15;;;12.50;;
69970;SDS011;57301;50.328;8.542;2023-08-12T06:52:15;16.88;;;12.38;;
69970;SDS011;57301;50.328;8.542;2023-08-12T06:54:42;13.67;;;11.60;;
69970;SDS011;57301;50.328;8.542;2023-08-12T06:57:10;15.50;;;11.27;;
69970;SDS011;57301;50.328;8.542;2023-08-12T06:59:38;13.73;;;11.63;;
69970;SDS011;57301;50.328;8.542;2023-08-12T07:02:06;12.98;;;10.57;;
69970;SDS011;57301;50.328;8.542;2023-08-12T07:04:32;13.15;;;10.82;;
69970;SDS011;57301;50.328;8.542;2023-08-12T07:06:59;13.50;;;10.43;;
69970;SDS011;57301;50.328;8.542;2023-08-12T07:09:26;12.85;;;9.27;;
69970;SDS011;57301;50.328;8.542;2023-08-12T07:11:52;12.77;;;9.55;;
69970;SDS011;57301;50.328;8.542;2023-08-12T07:14:18;11.93;;;9.38;;
69970;SDS011;57301;50.328;8.542;2023-08-12T07:16:45;12.88;;;10.05;;
69970;SDS011;57301;50.328;8.542;2023-08-12T07:19:11;13.93;;;11.20;;
69970;SDS011;57301;50.328;8.542;2023-08-12T07:21:42;14.70;;;11.57;;
69970;SDS011;57301;50.328;8.542;2023-08-12T07:24:11;12.07;;;9.77;;
69970;SDS011;57301;50.328;8.542;2023-08-12T07:26:37;48.70;;;14.05;;
69970;SDS011;57301;50.328;8.542;2023-08-12T07:29:04;15.68;;;10.50;;
69970;SDS011;57301;50.328;8.542;2023-08-12T07:31:30;12.97;;;10.43;;
69970;SDS011;57301;50.328;8.542;2023-08-12T07:33:57;14.98;;;11.02;;
69970;SDS011;57301;50.328;8.542;2023-08-12T07:36:23;11.10;;;9.90;;
69970;SDS011;57301;50.328;8.542;2023-08-12T07:38:50;12.65;;;10.48;;
69970;SDS011;57301;50.328;8.542;2023-08-12T07:41:16;13.75;;;10.43;;
69970;SDS011;57301;50.328;8.542;2023-08-12T07:43:43;11.60;;;10.33;;
69970;SDS011;57301;50.328;8.542;2023-08-12T07:46:09;13.30;;;10.75;;
69970;SDS011;57301;50.328;8.542;2023-08-12T07:48:36;13.52;;;10.35;;
69970;SDS011;57301;50.328;8.542;2023-08-12T07:51:04;12.23;;;10.15;;
69970;SDS011;57301;50.328;8.542;2023-08-12T07:53:31;13.57;;;10.90;;
69970;SDS011;57301;50.328;8.542;2023-08-12T07:55:57;12.63;;;10.43;;
69970;SDS011;57301;50.328;8.542;2023-08-12T07:58:24;13.07;;;11.02;;
69970;SDS011;57301;50.328;8.542;2023-08-12T08:00:52;18.15;;;11.38;;
69970;SDS011;57301;50.328;8.542;2023-08-12T08:03:20;14.25;;;12.00;;
69970;SDS011;57301;50.328;8.542;2023-08-12T08:05:46;15.80;;;11.63;;
69970;SDS011;57301;50.328;8.542;2023-08-12T08:08:13;13.87;;;11.83;;
69970;SDS011;57301;50.328;8.542;2023-08-12T08:10:40;13.77;;;11.02;;
69970;SDS011;57301;50.328;8.542;2023-08-12T08:13:06;13.95;;;11.15;;
69970;SDS011;57301;50.328;8.542;2023-08-12T08:15:33;15.60;;;12.07;;
69970;SDS011;57301;50.328;8.542;2023-08-12T08:17:59;13.57;;;11.05;;
69970;SDS011;57301;50.328;8.542;2023-08-12T08:20:27;12.43;;;10.37;;
69970;SDS011;57301;50.328;8.542;2023-08-12T08:22:54;14.23;;;10.48;;
69970;SDS011;57301;50.328;8.542;2023-08-12T08:25:21;16.63;;;11.38;;
69970;SDS011;57301;50.328;8.542;2023-08-12T08:27:48;14.70;;;11.95;;
69970;SDS011;57301;50.328;8.542;2023-08-12T08:30:15;14.43;;;12.25;;
69970;SDS011;57301;50.328;8.542;2023-08-12T08:32:41;13.80;;;11.57;;
69970;SDS011;57301;50.328;8.542;2023-08-12T08:35:08;12.60;;;10.63;;
69970;SDS011;57301;50.328;8.542;2023-08-12T08:37:34;12.75;;;10.70;;
69970;SDS011;57301;50.328;8.542;2023-08-12T08:40:01;15.07;;;10.45;;
69970;SDS011;57301;50.328;8.542;2023-08-12T08:42:29;10.35;;;9.20;;
69970;SDS011;57301;50.328;8.542;2023-08-12T08:44:56;14.37;;;9.57;;
69970;SDS011;57301;50.328;8.542;2023-08-12T08:47:26;18.85;;;9.00;;
69970;SDS011;57301;50.328;8.542;2023-08-12T08:49:54;8.85;;;6.25;;
69970;SDS011;57301;50.328;8.542;2023-08-12T08:52:25;9.13;;;5.95;;
69970;SDS011;57301;50.328;8.542;2023-08-12T08:54:52;6.70;;;5.68;;
69970;SDS011;57301;50.328;8.542;2023-08-12T08:57:19;6.93;;;5.17;;
69970;SDS011;57301;50.328;8.542;2023-08-12T09:00:05;6.65;;;5.10;;
69970;SDS011;57301;50.328;8.542;2023-08-12T09:02:42;6.55;;;4.20;;
69970;SDS011;57301;50.328;8.542;2023-08-12T09:05:10;6.72;;;4.00;;
69970;SDS011;57301;50.328;8.542;2023-08-12T09:07:39;4.25;;;3.30;;
69970;SDS011;57301;50.328;8.542;2023-08-12T09:10:07;6.57;;;3.93;;
69970;SDS011;57301;50.328;8.542;2023-08-12T09:12:34;7.07;;;5.85;;
69970;SDS011;57301;50.328;8.542;2023-08-12T09:15:03;8.45;;;5.70;;
69970;SDS011;57301;50.328;8.542;2023-08-12T09:17:30;7.15;;;5.90;;
69970;SDS011;57301;50.328;8.542;2023-08-12T09:19:59;7.53;;;6.50;;
69970;SDS011;57301;50.328;8.542;2023-08-12T09:22:25;8.87;;;7.37;;
69970;SDS011;57301;50.328;8.542;2023-08-12T09:24:58;9.98;;;8.23;;
69970;SDS011;57301;50.328;8.542;2023-08-12T09:27:25;10.23;;;8.35;;
69970;SDS011;57301;50.328;8.542;2023-08-12T09:29:55;12.82;;;9.48;;
69970;SDS011;57301;50.328;8.542;2023-08-12T09:32:25;13.10;;;9.77;;
69970;SDS011;57301;50.328;8.542;2023-08-12T09:34:52;12.60;;;8.90;;
69970;SDS011;57301;50.328;8.542;2023-08-12T09:37:20;13.23;;;9.52;;
69970;SDS011;57301;50.328;8.542;2023-08-12T09:39:48;16.77;;;10.35;;
69970;SDS011;57301;50.328;8.542;2023-08-12T09:42:18;12.73;;;10.32;;
69970;SDS011;57301;50.328;8.542;2023-08-12T09:44:47;11.88;;;10.35;;
69970;SDS011;57301;50.328;8.542;2023-08-12T09:47:14;11.57;;;9.83;;
69970;SDS011;57301;50.328;8.542;2023-08-12T09:49:40;10.63;;;8.85;;
69970;SDS011;57301;50.328;8.542;2023-08-12T09:52:08;10.73;;;9.43;;
69970;SDS011;57301;50.328;8.542;2023-08-12T09:54:35;10.82;;;9.30;;
69970;SDS011;57301;50.328;8.542;2023-08-12T09:57:03;10.30;;;8.50;;
69970;SDS011;57301;50.328;8.542;2023-08-12T09:59:33;11.87;;;9.40;;
69970;SDS011;57301;50.328;8.542;2023-08-12T10:02:04;11.52;;;8.13;;
69970;SDS011;57301;50.328;8.542;2023-08-12T10:04:35;10.90;;;8.15;;
69970;SDS011;57301;50.328;8.542;2023-08-12T10:07:10;9.82;;;7.47;;
69970;SDS011;57301;50.328;8.542;2023-08-12T10:09:39;9.80;;;8.05;;
69970;SDS011;57301;50.328;8.542;2023-08-12T10:12:06;10.13;;;7.43;;
69970;SDS011;57301;50.328;8.542;2023-08-12T10:14:33;8.77;;;7.72;;
69970;SDS011;57301;50.328;8.542;2023-08-12T10:17:00;10.73;;;7.78;;
69970;SDS011;57301;50.328;8.542;2023-08-12T10:19:31;8.77;;;6.90;;
69970;SDS011;57301;50.328;8.542;2023-08-12T10:22:02;8.02;;;6.43;;
69970;SDS011;57301;50.328;8.542;2023-08-12T10:24:30;7.87;;;6.63;;
69970;SDS011;57301;50.328;8.542;2023-08-12T10:26:57;8.77;;;6.70;;
69970;SDS011;57301;50.328;8.542;2023-08-12T10:29:23;7.05;;;6.30;;
69970;SDS011;57301;50.328;8.542;2023-08-12T10:31:52;6.88;;;6.18;;
69970;SDS011;57301;50.328;8.542;2023-08-12T10:34:22;7.28;;;6.53;;
69970;SDS011;57301;50.328;8.542;2023-08-12T10:36:53;9.87;;;8.17;;
69970;SDS011;57301;50.328;8.542;2023-08-12T10:39:29;8.07;;;5.78;;
69970;SDS011;57301;50.328;8.542;2023-08-12T10:41:58;7.32;;;4.30;;
69970;SDS011;57301;50.328;8.542;2023-08-12T10:47:20;5.00;;;3.92;;
69970;SDS011;57301;50.328;8.542;2023-08-12T10:49:50;4.63;;;3.50;;
69970;SDS011;57301;50.328;8.542;2023-08-12T10:52:31;6.72;;;4.25;;
69970;SDS011;57301;50.328;8.542;2023-08-12T10:57:50;6.05;;;4.32;;
69970;SDS011;57301;50.328;8.542;2023-08-12T11:00:25;7.00;;;4.75;;
69970;SDS011;57301;50.328;8.542;2023-08-12T11:02:54;6.50;;;4.77;;
69970;SDS011;57301;50.328;8.542;2023-08-12T11:05:22;7.10;;;4.80;;
69970;SDS011;57301;50.328;8.542;2023-08-12T11:07:56;7.68;;;5.10;;
69970;SDS011;57301;50.328;8.542;2023-08-12T11:10:25;6.80;;;5.00;;
69970;SDS011;57301;50.328;8.542;2023-08-12T11:15:39;6.33;;;5.20;;
69970;SDS011;57301;50.328;8.542;2023-08-12T11:18:18;8.40;;;5.25;;
69970;SDS011;57301;50.328;8.542;2023-08-12T11:20:49;7.80;;;5.25;;
69970;SDS011;57301;50.328;8.542;2023-08-12T11:23:16;6.35;;;5.00;;
69970;SDS011;57301;50.328;8.542;2023-08-12T11:25:43;6.20;;;5.05;;
69970;SDS011;57301;50.328;8.542;2023-08-12T11:28:11;6.50;;;4.90;;
69970;SDS011;57301;50.328;8.542;2023-08-12T11:30:40;7.10;;;5.28;;
69970;SDS011;57301;50.328;8.542;2023-08-12T11:33:08;6.20;;;5.00;;
69970;SDS011;57301;50.328;8.542;2023-08-12T11:35:36;6.00;;;4.95;;
69970;SDS011;57301;50.328;8.542;2023-08-12T11:38:04;7.70;;;5.00;;
69970;SDS011;57301;50.328;8.542;2023-08-12T11:40:31;6.87;;;4.50;;
69970;SDS011;57301;50.328;8.542;2023-08-12T11:42:58;6.72;;;4.05;;
69970;SDS011;57301;50.328;8.542;2023-08-12T11:45:25;5.88;;;4.28;;
69970;SDS011;57301;50.328;8.542;2023-08-12T11:47:53;6.47;;;3.90;;
69970;SDS011;57301;50.328;8.542;2023-08-12T11:50:25;5.88;;;3.70;;
69970;SDS011;57301;50.328;8.542;2023-08-12T11:52:52;5.60;;;3.50;;
69970;SDS011;57301;50.328;8.542;2023-08-12T11:55:21;5.75;;;3.53;;
69970;SDS011;57301;50.328;8.542;2023-08-12T11:57:48;5.93;;;3.42;;
69970;SDS011;57301;50.328;8.542;2023-08-12T12:00:16;7.35;;;3.70;;
69970;SDS011;57301;50.328;8.542;2023-08-12T12:02:49;5.03;;;3.40;;
69970;SDS011;57301;50.328;8.542;2023-08-12T12:05:17;5.27;;;3.60;;
69970;SDS011;57301;50.328;8.542;2023-08-12T12:07:49;5.78;;;3.70;;
69970;SDS011;57301;50.328;8.542;2023-08-12T12:10:20;7.10;;;3.78;;
69970;SDS011;57301;50.328;8.542;2023-08-12T12:12:58;6.05;;;3.53;;
69970;SDS011;57301;50.328;8.542;2023-08-12T12:15:26;7.03;;;3.15;;
69970;SDS011;57301;50.328;8.542;2023-08-12T12:17:55;5.47;;;3.50;;
69970;SDS011;57301;50.328;8.542;2023-08-12T12:20:24;5.40;;;3.10;;
69970;SDS011;57301;50.328;8.542;2023-08-12T12:22:53;4.10;;;3.00;;
69970;SDS011;57301;50.328;8.542;2023-08-12T12:25:19;5.05;;;2.95;;
69970;SDS011;57301;50.328;8.542;2023-08-12T12:27:47;6.32;;;3.20;;
69970;SDS011;57301;50.328;8.542;2023-08-12T12:30:14;5.97;;;3.23;;
69970;SDS011;57301;50.328;8.542;2023-08-12T12:32:42;5.25;;;3.00;;
69970;SDS011;57301;50.328;8.542;2023-08-12T12:35:09;5.30;;;3.10;;
69970;SDS011;57301;50.328;8.542;2023-08-12T12:37:35;4.93;;;3.20;;
69970;SDS011;57301;50.328;8.542;2023-08-12T12:40:05;4.75;;;3.10;;
69970;SDS011;57301;50.328;8.542;2023-08-12T12:42:33;6.07;;;3.20;;
69970;SDS011;57301;50.328;8.542;2023-08-12T12:45:00;4.82;;;3.00;;
69970;SDS011;57301;50.328;8.542;2023-08-12T12:47:26;5.07;;;2.78;;
69970;SDS011;57301;50.328;8.542;2023-08-12T12:49:53;5.07;;;3.40;;
69970;SDS011;57301;50.328;8.542;2023-08-12T12:52:19;4.20;;;3.00;;
69970;SDS011;57301;50.328;8.542;2023-08-12T12:54:45;6.80;;;3.13;;
69970;SDS011;57301;50.328;8.542;2023-08-12T12:57:18;4.22;;;2.85;;
69970;SDS011;57301;50.328;8.542;2023-08-12T12:59:44;4.22;;;2.85;;
69970;SDS011;57301;50.328;8.542;2023-08-12T13:02:11;4.65;;;2.50;;
69970;SDS011;57301;50.328;8.542;2023-08-12T13:04:38;5.13;;;2.42;;
69970;SDS011;57301;50.328;8.542;2023-08-12T13:07:04;3.83;;;2.60;;
69970;SDS011;57301;50.328;8.542;2023-08-12T13:09:31;4.63;;;2.50;;
69970;SDS011;57301;50.328;8.542;2023-08-12T13:12:10;3.67;;;2.50;;
69970;SDS011;57301;50.328;8.542;2023-08-12T13:14:37;4.72;;;2.65;;
69970;SDS011;57301;50.328;8.542;2023-08-12T13:17:04;4.28;;;2.40;;
69970;SDS011;57301;50.328;8.542;2023-08-12T13:19:30;3.70;;;2.30;;
69970;SDS011;57301;50.328;8.542;2023-08-12T13:21:56;3.70;;;2.03;;
69970;SDS011;57301;50.328;8.542;2023-08-12T13:24:23;4.88;;;2.33;;
69970;SDS011;57301;50.328;8.542;2023-08-12T13:27:03;4.38;;;2.30;;
69970;SDS011;57301;50.328;8.542;2023-08-12T13:29:29;3.53;;;2.28;;
69970;SDS011;57301;50.328;8.542;2023-08-12T13:31:58;3.57;;;2.00;;
69970;SDS011;57301;50.328;8.542;2023-08-12T13:34:24;3.78;;;1.90;;
69970;SDS011;57301;50.328;8.542;2023-08-12T13:36:51;3.65;;;2.30;;
69970;SDS011;57301;50.328;8.542;2023-08-12T13:39:17;4.70;;;2.22;;
69970;SDS011;57301;50.328;8.542;2023-08-12T13:41:44;4.68;;;2.38;;
69970;SDS011;57301;50.328;8.542;2023-08-12T13:44:10;3.40;;;2.10;;
69970;SDS011;57301;50.328;8.542;2023-08-12T13:46:36;3.55;;;2.10;;
69970;SDS011;57301;50.328;8.542;2023-08-12T13:49:03;4.75;;;2.90;;
69970;SDS011;57301;50.328;8.542;2023-08-12T13:51:29;4.40;;;2.65;;
69970;SDS011;57301;50.328;8.542;2023-08-12T13:53:56;3.50;;;2.60;;
69970;SDS011;57301;50.328;8.542;2023-08-12T13:56:23;4.40;;;2.40;;
69970;SDS011;57301;50.328;8.542;2023-08-12T13:58:49;3.78;;;2.53;;
69970;SDS011;57301;50.328;8.542;2023-08-12T14:01:16;4.38;;;2.35;;
69970;SDS011;57301;50.328;8.542;2023-08-12T14:03:42;3.20;;;2.30;;
69970;SDS011;57301;50.328;8.542;2023-08-12T14:06:09;5.13;;;2.80;;
69970;SDS011;57301;50.328;8.542;2023-08-12T14:08:35;4.53;;;2.50;;
69970;SDS011;57301;50.328;8.542;2023-08-12T14:11:02;4.03;;;2.50;;
69970;SDS011;57301;50.328;8.542;2023-08-12T14:13:28;3.88;;;2.58;;
69970;SDS011;57301;50.328;8.542;2023-08-12T14:15:55;4.60;;;2.50;;
69970;SDS011;57301;50.328;8.542;2023-08-12T14:18:21;4.18;;;2.78;;
69970;SDS011;57301;50.328;8.542;2023-08-12T14:20:48;3.87;;;2.50;;
69970;SDS011;57301;50.328;8.542;2023-08-12T14:23:14;4.25;;;2.50;;
69970;SDS011;57301;50.328;8.542;2023-08-12T14:25:40;4.85;;;2.70;;
69970;SDS011;57301;50.328;8.542;2023-08-12T14:28:07;3.97;;;2.40;;
69970;SDS011;57301;50.328;8.542;2023-08-12T14:30:33;4.53;;;2.80;;
69970;SDS011;57301;50.328;8.542;2023-08-12T14:33:00;3.63;;;2.67;;
69970;SDS011;57301;50.328;8.542;2023-08-12T14:35:26;4.68;;;2.92;;
69970;SDS011;57301;50.328;8.542;2023-08-12T14:37:53;4.70;;;3.20;;
69970;SDS011;57301;50.328;8.542;2023-08-12T14:40:19;6.00;;;2.78;;
69970;SDS011;57301;50.328;8.542;2023-08-12T14:42:46;5.90;;;3.03;;
69970;SDS011;57301;50.328;8.542;2023-08-12T14:45:12;6.90;;;3.50;;
69970;SDS011;57301;50.328;8.542;2023-08-12T14:47:39;4.88;;;2.97;;
69970;SDS011;57301;50.328;8.542;2023-08-12T14:50:05;5.22;;;3.10;;
69970;SDS011;57301;50.328;8.542;2023-08-12T14:52:32;4.72;;;3.08;;
69970;SDS011;57301;50.328;8.542;2023-08-12T14:54:59;5.60;;;3.20;;